createdAt,value
2023-03-03T00:01:46.000Z,5.37
2023-03-03T00:04:14.339Z,5.38
2023-03-03T00:06:45.602Z,5.40
2023-03-03T00:09:13.787Z,5.41
2023-03-03T00:11:46.441Z,5.42
2023-03-03T00:14:23.315Z,5.40
2023-03-03T00:16:51.807Z,5.38
2023-03-03T00:19:20.582Z,5.37
2023-03-03T00:21:50.130Z,5.37
2023-03-03T00:24:21.537Z,5.39
2023-03-03T00:26:51.658Z,5.41
2023-03-03T00:29:31.102Z,5.44
2023-03-03T00:32:15.805Z,5.44
2023-03-03T00:34:44.575Z,5.45
2023-03-03T00:37:32.295Z,5.47
2023-03-03T00:40:24.204Z,5.49
2023-03-03T00:42:57.193Z,5.52
2023-03-03T00:45:50.599Z,5.53
2023-03-03T00:48:21.700Z,5.53
2023-03-03T00:50:50.896Z,5.53
2023-03-03T00:53:20.436Z,5.52
2023-03-03T00:55:50.113Z,5.52
2023-03-03T00:58:22.084Z,5.51
2023-03-03T01:00:52.701Z,5.48
2023-03-03T01:03:25.104Z,5.41
2023-03-03T01:05:53.881Z,5.31
2023-03-03T01:08:22.546Z,5.22
2023-03-03T01:10:56.990Z,5.18
2023-03-03T01:13:33.541Z,5.16
2023-03-03T01:16:02.270Z,5.10
2023-03-03T01:18:31.522Z,5.05
2023-03-03T01:20:59.900Z,5.02
2023-03-03T01:23:29.300Z,4.98
2023-03-03T01:25:58.307Z,4.94
2023-03-03T01:28:26.672Z,4.92
2023-03-03T01:30:55.397Z,4.92
2023-03-03T01:33:23.837Z,4.91
2023-03-03T01:35:52.493Z,4.91
2023-03-03T01:38:20.937Z,4.86
2023-03-03T01:40:59.529Z,4.82
2023-03-03T01:43:31.296Z,4.81
2023-03-03T01:45:59.762Z,4.81
2023-03-03T01:48:34.492Z,4.80
2023-03-03T01:51:05.833Z,4.80
2023-03-03T01:53:55.298Z,4.81
2023-03-03T01:56:23.691Z,4.79
2023-03-03T01:58:53.527Z,4.77
2023-03-03T02:01:25.122Z,4.78
2023-03-03T02:03:56.196Z,4.81
2023-03-03T02:06:28.257Z,4.87
2023-03-03T02:09:00.525Z,4.91
2023-03-03T02:11:29.000Z,4.94
2023-03-03T02:13:57.381Z,4.94
2023-03-03T02:16:29.781Z,4.98
2023-03-03T02:18:58.438Z,5.05
2023-03-03T02:21:28.051Z,5.08
2023-03-03T02:24:20.898Z,5.10
2023-03-03T02:26:56.456Z,5.10
2023-03-03T02:29:25.050Z,5.09
2023-03-03T02:31:54.223Z,5.09
2023-03-03T02:34:23.219Z,5.09
2023-03-03T02:36:52.007Z,5.12
2023-03-03T02:39:23.055Z,5.13
2023-03-03T02:42:12.727Z,5.13
2023-03-03T02:44:48.583Z,5.12
2023-03-03T02:47:17.889Z,5.10
2023-03-03T02:49:46.670Z,5.08
2023-03-03T02:52:18.315Z,5.06
2023-03-03T02:54:47.926Z,5.05
2023-03-03T02:57:16.812Z,5.05
2023-03-03T02:59:45.124Z,5.03
2023-03-03T03:02:15.410Z,5.02
2023-03-03T03:04:43.727Z,5.03
2023-03-03T03:07:15.138Z,5.06
2023-03-03T03:09:46.488Z,5.10
2023-03-03T03:12:16.293Z,5.15
2023-03-03T03:14:45.199Z,5.18
2023-03-03T03:17:14.083Z,5.19
2023-03-03T03:19:42.760Z,5.20
2023-03-03T03:22:11.239Z,5.20
2023-03-03T03:24:40.334Z,5.21
2023-03-03T03:27:10.071Z,5.21
2023-03-03T03:29:39.956Z,5.21
2023-03-03T03:32:09.486Z,5.20
2023-03-03T03:34:38.759Z,5.19
2023-03-03T03:37:10.108Z,5.17
2023-03-03T03:39:59.069Z,5.16
2023-03-03T03:42:28.678Z,5.17
2023-03-03T03:44:58.496Z,5.21
2023-03-03T03:47:28.093Z,5.25
2023-03-03T03:49:57.193Z,5.29
2023-03-03T03:52:25.774Z,5.30
2023-03-03T03:54:54.463Z,5.31
2023-03-03T03:57:24.508Z,5.30
2023-03-03T04:00:15.183Z,5.32
2023-03-03T04:02:45.896Z,5.31
2023-03-03T04:05:15.930Z,5.28
2023-03-03T04:07:44.535Z,5.23
2023-03-03T04:10:13.197Z,5.19
2023-03-03T04:12:42.228Z,5.17
2023-03-03T04:15:16.521Z,5.17
2023-03-03T04:17:46.223Z,5.18
2023-03-03T04:20:16.139Z,5.19
2023-03-03T04:22:45.331Z,5.21
2023-03-03T04:25:15.630Z,5.22
2023-03-03T04:27:44.649Z,5.20
2023-03-03T04:30:14.980Z,5.19
2023-03-03T04:32:44.168Z,5.17
2023-03-03T04:35:13.581Z,5.16
2023-03-03T04:37:43.901Z,5.17
2023-03-03T04:40:12.787Z,5.18
2023-03-03T04:42:42.154Z,5.20
2023-03-03T04:45:15.069Z,5.20
2023-03-03T04:47:44.269Z,5.19
2023-03-03T04:50:13.157Z,5.18
2023-03-03T04:52:43.907Z,5.18
2023-03-03T04:55:14.523Z,5.18
2023-03-03T04:57:43.475Z,5.19
2023-03-03T05:00:15.939Z,5.20
2023-03-03T05:02:48.154Z,5.21
2023-03-03T05:05:19.839Z,5.21
2023-03-03T05:07:48.292Z,5.21
2023-03-03T05:10:16.772Z,5.22
2023-03-03T05:12:45.114Z,5.22
2023-03-03T05:18:38.623Z,5.32
2023-03-03T05:21:07.413Z,5.33
2023-03-03T05:23:36.711Z,5.36
2023-03-03T05:26:05.708Z,5.38
2023-03-03T05:28:34.087Z,5.39
2023-03-03T05:31:02.475Z,5.42
2023-03-03T05:33:31.653Z,5.46
2023-03-03T05:36:00.047Z,5.53
2023-03-03T05:38:31.900Z,5.61
2023-03-03T05:41:00.453Z,5.69
2023-03-03T05:43:29.470Z,5.76
2023-03-03T05:45:58.665Z,5.83
2023-03-03T05:48:27.963Z,5.90
2023-03-03T05:50:59.715Z,5.97
2023-03-03T05:53:28.719Z,6.07
2023-03-03T05:55:57.616Z,6.16
2023-03-03T05:58:30.589Z,6.25
2023-03-03T06:00:59.994Z,6.31
2023-03-03T06:03:29.097Z,6.36
2023-03-03T06:05:57.878Z,6.41
2023-03-03T06:08:27.383Z,6.45
2023-03-03T06:10:55.761Z,6.51
2023-03-03T06:13:24.548Z,6.57
2023-03-03T06:15:53.501Z,6.62
2023-03-03T06:18:23.363Z,6.68
2023-03-03T06:20:55.334Z,6.76
2023-03-03T06:23:23.809Z,6.88
2023-03-03T06:25:53.505Z,7.03
2023-03-03T06:28:21.995Z,7.23
2023-03-03T06:30:53.739Z,7.46
2023-03-03T06:33:23.991Z,7.70
2023-03-03T06:35:52.896Z,7.90
2023-03-03T06:38:21.813Z,8.04
2023-03-03T06:40:50.258Z,8.10
2023-03-03T06:43:18.706Z,8.11
2023-03-03T06:45:47.362Z,8.11
2023-03-03T06:48:22.013Z,8.12
2023-03-03T06:50:51.313Z,8.13
2023-03-03T06:53:19.902Z,8.15
2023-03-03T06:55:48.792Z,8.18
2023-03-03T06:58:19.237Z,8.22
2023-03-03T07:00:56.837Z,8.29
2023-03-03T07:03:28.468Z,8.36
2023-03-03T07:05:57.560Z,8.44
2023-03-03T07:08:26.149Z,8.53
2023-03-03T07:10:55.545Z,8.64
2023-03-03T07:13:29.051Z,8.76
2023-03-03T07:15:59.383Z,8.86
2023-03-03T07:18:37.787Z,8.98
2023-03-03T07:21:19.880Z,9.09
2023-03-03T07:23:50.105Z,9.17
2023-03-03T07:26:20.539Z,9.22
2023-03-03T07:28:56.396Z,9.26
2023-03-03T07:31:38.701Z,9.28
2023-03-03T07:34:39.641Z,9.32
2023-03-03T07:37:17.644Z,9.39
2023-03-03T07:39:46.442Z,9.46
2023-03-03T07:42:22.237Z,9.50
2023-03-03T07:44:57.975Z,9.51
2023-03-03T07:47:34.726Z,9.52
2023-03-03T07:50:29.417Z,9.54
2023-03-03T07:52:59.794Z,9.56
2023-03-03T07:55:36.305Z,9.60
2023-03-03T07:58:16.863Z,9.65
2023-03-03T08:01:05.001Z,9.69
2023-03-03T08:03:33.483Z,9.71
2023-03-03T08:06:10.364Z,9.71
2023-03-03T08:08:44.071Z,9.69
2023-03-03T08:11:12.346Z,9.68
2023-03-03T08:13:42.165Z,9.70
2023-03-03T08:16:10.456Z,9.73
2023-03-03T08:18:48.050Z,9.77
2023-03-03T08:21:23.153Z,9.84
2023-03-03T08:23:53.595Z,9.88
2023-03-03T08:26:22.269Z,9.91
2023-03-03T08:28:52.369Z,9.92
2023-03-03T08:31:39.792Z,9.92
2023-03-03T08:34:10.016Z,9.93
2023-03-03T08:36:42.590Z,9.95
2023-03-03T08:39:13.532Z,9.98
2023-03-03T08:41:44.173Z,10.01
2023-03-03T08:44:12.543Z,10.05
2023-03-03T08:46:41.188Z,10.08
2023-03-03T08:49:11.381Z,10.11
2023-03-03T08:51:39.922Z,10.14
2023-03-03T08:54:08.814Z,10.18
2023-03-03T08:56:37.911Z,10.22
2023-03-03T08:59:06.497Z,10.27
2023-03-03T09:01:40.180Z,10.31
2023-03-03T09:04:08.547Z,10.35
2023-03-03T09:06:37.877Z,10.36
2023-03-03T09:09:06.677Z,10.37
2023-03-03T09:11:35.858Z,10.36
2023-03-03T09:14:16.599Z,10.37
2023-03-03T09:16:54.632Z,10.38
2023-03-03T09:19:37.254Z,10.41
2023-03-03T09:22:22.926Z,10.44
2023-03-03T09:24:54.178Z,10.48
2023-03-03T09:27:32.688Z,10.53
2023-03-03T09:30:24.544Z,10.57
2023-03-03T09:32:54.021Z,10.58
2023-03-03T09:35:38.021Z,10.56
2023-03-03T09:38:33.490Z,10.51
2023-03-03T09:41:01.756Z,10.46
2023-03-03T09:43:50.414Z,10.41
2023-03-03T09:46:36.970Z,10.38
2023-03-03T09:49:20.568Z,10.38
2023-03-03T09:52:00.705Z,10.38
2023-03-03T09:54:56.219Z,10.38
2023-03-03T09:57:43.783Z,10.37
2023-03-03T10:00:16.133Z,10.36
2023-03-03T10:02:55.066Z,10.35
2023-03-03T10:05:51.781Z,10.36
2023-03-03T10:08:36.562Z,10.39
2023-03-03T10:11:11.268Z,10.44
2023-03-03T10:14:13.065Z,10.47
2023-03-03T10:16:50.235Z,10.51
2023-03-03T10:19:38.151Z,10.52
2023-03-03T10:22:12.600Z,10.54
2023-03-03T10:24:52.827Z,10.55
2023-03-03T10:27:46.903Z,10.56
2023-03-03T10:30:26.797Z,10.58
2023-03-03T10:33:20.062Z,10.61
2023-03-03T10:36:09.099Z,10.65
2023-03-03T10:39:05.531Z,10.69
2023-03-03T10:42:28.705Z,10.71
2023-03-03T10:45:38.492Z,10.72
2023-03-03T10:48:25.719Z,10.73
2023-03-03T10:51:25.485Z,10.71
2023-03-03T10:54:16.003Z,10.69
2023-03-03T10:57:06.658Z,10.70
2023-03-03T10:59:56.247Z,10.73
2023-03-03T11:02:36.824Z,10.77
2023-03-03T11:05:29.771Z,10.82
2023-03-03T11:08:04.336Z,10.86
2023-03-03T11:10:59.618Z,10.88
2023-03-03T11:13:40.994Z,10.88
2023-03-03T11:16:39.009Z,10.86
2023-03-03T11:19:13.566Z,10.84
2023-03-03T11:21:53.514Z,10.82
2023-03-03T11:24:25.415Z,10.82
2023-03-03T11:27:03.602Z,10.83
2023-03-03T11:30:07.904Z,10.85
2023-03-03T11:32:49.800Z,10.87
2023-03-03T11:35:21.138Z,10.84
2023-03-03T11:37:54.357Z,10.78
2023-03-03T11:40:36.950Z,10.67
2023-03-03T11:43:35.356Z,10.66
2023-03-03T11:46:13.558Z,10.60
2023-03-03T11:48:59.127Z,10.59
2023-03-03T11:51:33.033Z,10.57
2023-03-03T11:54:13.497Z,10.52
2023-03-03T11:56:44.350Z,10.52
2023-03-03T11:59:33.629Z,10.52
2023-03-03T12:02:08.013Z,10.53
2023-03-03T12:04:42.576Z,10.51
2023-03-03T12:07:37.741Z,10.51
2023-03-03T12:10:18.847Z,10.51
2023-03-03T12:13:03.278Z,10.53
2023-03-03T12:16:04.792Z,10.56
2023-03-03T12:18:47.339Z,10.58
2023-03-03T12:21:39.949Z,10.58
2023-03-03T12:24:39.185Z,10.56
2023-03-03T12:27:23.557Z,10.54
2023-03-03T12:29:59.494Z,10.51
2023-03-03T12:32:35.490Z,10.49
2023-03-03T12:35:21.277Z,10.49
2023-03-03T12:38:05.238Z,10.48
2023-03-03T12:40:36.277Z,10.46
2023-03-03T12:43:33.784Z,10.45
2023-03-03T12:46:15.187Z,10.44
2023-03-03T12:48:45.123Z,10.43
2023-03-03T12:51:34.418Z,10.42
2023-03-03T12:54:14.927Z,10.39
2023-03-03T12:56:50.154Z,10.38
2023-03-03T12:59:21.094Z,10.35
2023-03-03T13:02:04.841Z,10.33
2023-03-03T13:04:57.168Z,10.32
2023-03-03T13:07:46.401Z,10.30
2023-03-03T13:10:39.187Z,10.27
2023-03-03T13:13:17.188Z,10.24
2023-03-03T13:15:55.451Z,10.21
2023-03-03T13:18:31.154Z,10.20
2023-03-03T13:21:26.834Z,10.19
2023-03-03T13:24:00.702Z,10.20
2023-03-03T13:26:36.314Z,10.19
2023-03-03T13:29:14.325Z,10.16
2023-03-03T13:31:48.153Z,10.13
2023-03-03T13:34:34.636Z,10.07
2023-03-03T13:37:30.134Z,10.02
2023-03-03T13:40:16.758Z,9.99
2023-03-03T13:42:56.222Z,10.00
2023-03-03T13:45:36.254Z,10.04
2023-03-03T13:48:43.738Z,10.09
2023-03-03T13:51:32.491Z,10.13
2023-03-03T13:54:30.052Z,10.15
2023-03-03T13:57:24.954Z,10.15
2023-03-03T14:00:21.610Z,10.13
2023-03-03T14:03:18.548Z,10.12
2023-03-03T14:06:13.445Z,10.13
2023-03-03T14:08:54.720Z,10.14
2023-03-03T14:11:31.496Z,10.16
2023-03-03T14:14:09.521Z,10.16
2023-03-03T14:16:55.371Z,10.15
2023-03-03T14:19:35.038Z,10.15
2023-03-03T14:22:26.144Z,10.16
2023-03-03T14:25:06.927Z,10.20
2023-03-03T14:27:36.841Z,10.26
2023-03-03T14:30:29.910Z,10.31
2023-03-03T14:33:01.773Z,10.37
2023-03-03T14:35:33.028Z,10.39
2023-03-03T14:38:02.597Z,10.40
2023-03-03T14:40:33.230Z,10.38
2023-03-03T14:43:02.530Z,10.34
2023-03-03T14:45:39.923Z,10.32
2023-03-03T14:48:11.782Z,10.30
2023-03-03T14:50:42.431Z,10.29
2023-03-03T14:53:14.575Z,10.27
2023-03-03T14:55:44.126Z,10.26
2023-03-03T14:58:42.056Z,10.25
2023-03-03T15:01:34.588Z,10.24
2023-03-03T15:04:04.417Z,10.24
2023-03-03T15:06:48.666Z,10.24
2023-03-03T15:09:37.826Z,10.22
2023-03-03T15:12:37.337Z,10.21
2023-03-03T15:15:30.258Z,10.18
2023-03-03T15:18:04.504Z,10.12
2023-03-03T15:20:37.794Z,10.08
2023-03-03T15:23:18.665Z,10.02
2023-03-03T15:26:14.076Z,9.99
2023-03-03T15:29:06.934Z,9.98
2023-03-03T15:31:54.793Z,10.00
2023-03-03T15:34:24.262Z,10.01
2023-03-03T15:36:58.699Z,10.02
2023-03-03T15:39:49.492Z,10.02
2023-03-03T15:42:35.851Z,10.02
2023-03-03T15:45:10.268Z,10.03
2023-03-03T15:47:42.989Z,10.03
2023-03-03T15:50:20.173Z,10.04
2023-03-03T15:52:54.487Z,10.05
2023-03-03T15:55:22.869Z,10.03
2023-03-03T15:58:00.567Z,10.02
2023-03-03T16:00:57.099Z,10.01
2023-03-03T16:03:36.646Z,10.01
2023-03-03T16:06:28.261Z,10.04
2023-03-03T16:09:03.305Z,10.08
2023-03-03T16:12:09.766Z,10.09
2023-03-03T16:14:52.623Z,10.10
2023-03-03T16:17:28.962Z,10.08
2023-03-03T16:20:23.337Z,10.06
2023-03-03T16:23:00.337Z,10.08
2023-03-03T16:25:32.312Z,10.11
2023-03-03T16:28:05.089Z,10.15
2023-03-03T16:30:35.078Z,10.18
2023-03-03T16:33:09.089Z,10.19
2023-03-03T16:35:40.000Z,10.19
2023-03-03T16:38:37.916Z,10.18
2023-03-03T16:41:11.401Z,10.18
2023-03-03T16:43:56.673Z,10.19
2023-03-03T16:46:45.530Z,10.21
2023-03-03T16:49:16.979Z,10.22
2023-03-03T16:51:47.200Z,10.21
2023-03-03T16:54:36.080Z,10.21
2023-03-03T16:57:18.982Z,10.20
2023-03-03T17:00:06.504Z,10.17
2023-03-03T17:02:49.665Z,10.18
2023-03-03T17:05:24.662Z,10.17
2023-03-03T17:08:07.372Z,10.15
2023-03-03T17:10:35.757Z,10.12
2023-03-03T17:13:27.985Z,10.09
2023-03-03T17:16:14.749Z,10.06
2023-03-03T17:18:49.426Z,10.05
2023-03-03T17:21:29.165Z,10.05
2023-03-03T17:24:13.927Z,10.03
2023-03-03T17:27:27.951Z,10.01
2023-03-03T17:30:07.429Z,9.98
2023-03-03T17:33:02.320Z,9.99
2023-03-03T17:35:33.261Z,10.00
2023-03-03T17:38:11.664Z,9.99
2023-03-03T17:40:47.212Z,9.98
2023-03-03T17:43:22.347Z,9.95
2023-03-03T17:45:53.010Z,9.91
2023-03-03T17:48:46.344Z,9.89
2023-03-03T17:51:33.460Z,9.90
2023-03-03T17:54:19.862Z,9.91
2023-03-03T17:57:25.620Z,9.89
2023-03-03T18:00:03.930Z,9.85
2023-03-03T18:02:42.298Z,9.84
2023-03-03T18:05:26.085Z,9.84
2023-03-03T18:08:21.293Z,9.87
2023-03-03T18:11:27.774Z,9.88
2023-03-03T18:14:24.098Z,9.88
2023-03-03T18:17:40.503Z,9.85
2023-03-03T18:20:21.986Z,9.83
2023-03-03T18:22:51.497Z,9.83
2023-03-03T18:25:57.550Z,9.82
2023-03-03T18:28:46.014Z,9.79
2023-03-03T18:31:27.418Z,9.76
2023-03-03T18:34:09.695Z,9.75
2023-03-03T18:36:57.619Z,9.74
2023-03-03T18:39:46.218Z,9.74
2023-03-03T18:42:17.324Z,9.71
2023-03-03T18:44:46.000Z,9.68
2023-03-03T18:47:15.399Z,9.63
2023-03-03T18:50:14.604Z,9.58
2023-03-03T18:53:08.483Z,9.52
2023-03-03T18:55:48.137Z,9.48
2023-03-03T18:58:16.323Z,9.46
2023-03-03T19:00:52.264Z,9.42
2023-03-03T19:03:49.609Z,9.38
2023-03-03T19:06:50.137Z,9.34
2023-03-03T19:09:58.927Z,9.31
2023-03-03T19:12:53.241Z,9.30
2023-03-03T19:15:29.957Z,9.28
2023-03-03T19:17:59.421Z,9.26
2023-03-03T19:20:38.366Z,9.25
2023-03-03T19:23:28.535Z,9.24
2023-03-03T19:26:25.069Z,9.26
2023-03-03T19:28:59.392Z,9.26
2023-03-03T19:31:37.567Z,9.26
2023-03-03T19:34:08.023Z,9.25
2023-03-03T19:36:50.534Z,9.24
2023-03-03T19:39:22.600Z,9.24
2023-03-03T19:41:56.847Z,9.25
2023-03-03T19:44:47.722Z,9.26
2023-03-03T19:47:21.733Z,9.25
2023-03-03T19:49:53.958Z,9.26
2023-03-03T19:52:42.654Z,9.26
2023-03-03T19:55:35.198Z,9.26
2023-03-03T19:58:18.730Z,9.26
2023-03-03T20:00:57.146Z,9.26
2023-03-03T20:03:47.957Z,9.26
2023-03-03T20:06:34.666Z,9.26
2023-03-03T20:09:16.260Z,9.24
2023-03-03T20:11:57.018Z,9.23
2023-03-03T20:14:46.160Z,9.22
2023-03-03T20:17:30.952Z,9.22
2023-03-03T20:20:07.508Z,9.21
2023-03-03T20:22:40.907Z,9.18
2023-03-03T20:25:18.198Z,9.14
2023-03-03T20:28:14.643Z,9.10
2023-03-03T20:31:10.633Z,9.07
2023-03-03T20:34:08.319Z,9.06
2023-03-03T20:37:04.272Z,9.05
2023-03-03T20:40:09.381Z,9.02
2023-03-03T20:42:47.795Z,8.98
2023-03-03T20:45:16.991Z,8.94
2023-03-03T20:48:03.912Z,8.92
2023-03-03T20:50:54.303Z,8.90
2023-03-03T20:53:48.075Z,8.88
2023-03-03T20:56:32.733Z,8.84
2023-03-03T20:59:14.324Z,8.81
2023-03-03T21:01:49.954Z,8.76
2023-03-03T21:04:20.224Z,8.73
2023-03-03T21:06:48.805Z,8.71
2023-03-03T21:09:27.542Z,8.69
2023-03-03T21:11:56.594Z,8.68
2023-03-03T21:14:38.600Z,8.66
2023-03-03T21:17:28.175Z,8.62
2023-03-03T21:20:17.844Z,8.56
2023-03-03T21:22:46.732Z,8.51
2023-03-03T21:25:40.296Z,8.47
2023-03-03T21:28:21.305Z,8.44
2023-03-03T21:31:01.981Z,8.42
2023-03-03T21:33:47.004Z,8.40
2023-03-03T21:36:17.967Z,8.38
2023-03-03T21:38:46.934Z,8.35
2023-03-03T21:41:16.494Z,8.31
2023-03-03T21:43:46.490Z,8.33
2023-03-03T21:46:18.977Z,8.33
2023-03-03T21:48:47.305Z,8.32
2023-03-03T21:51:21.644Z,8.32
2023-03-03T21:53:49.899Z,8.30
2023-03-03T21:56:18.380Z,8.28
2023-03-03T21:58:47.243Z,8.23
2023-03-03T22:01:15.628Z,8.19
2023-03-03T22:03:45.889Z,8.17
2023-03-03T22:06:14.257Z,8.14
2023-03-03T22:08:47.752Z,8.12
2023-03-03T22:11:16.141Z,8.10
2023-03-03T22:13:44.606Z,8.10
2023-03-03T22:16:13.101Z,8.08
2023-03-03T22:18:42.079Z,8.05
2023-03-03T22:21:10.779Z,8.02
2023-03-03T22:23:40.139Z,8.01
2023-03-03T22:26:08.441Z,8.00
2023-03-03T22:28:36.722Z,7.99
2023-03-03T22:31:05.381Z,7.97
2023-03-03T22:33:38.395Z,7.96
2023-03-03T22:36:08.457Z,7.94
2023-03-03T22:38:37.742Z,7.92
2023-03-03T22:41:08.760Z,7.90
2023-03-03T22:43:37.446Z,7.88
2023-03-03T22:46:05.874Z,7.87
2023-03-03T22:48:34.708Z,7.69
2023-03-03T22:51:03.293Z,7.61
2023-03-03T22:53:46.756Z,7.55
2023-03-03T22:56:15.612Z,7.51
2023-03-03T22:58:44.602Z,7.46
2023-03-03T23:01:15.437Z,7.43
2023-03-03T23:03:43.828Z,7.39
2023-03-03T23:06:12.292Z,7.36
2023-03-03T23:08:41.293Z,7.33
2023-03-03T23:11:09.815Z,7.30
2023-03-03T23:13:38.242Z,7.27
2023-03-03T23:16:07.283Z,7.23
2023-03-03T23:18:35.613Z,7.21
2023-03-03T23:21:04.029Z,7.19
2023-03-03T23:23:32.443Z,7.19
2023-03-03T23:26:01.260Z,7.20
2023-03-03T23:28:30.355Z,7.23
2023-03-03T23:30:58.737Z,7.26
2023-03-03T23:33:27.142Z,7.27
2023-03-03T23:35:55.567Z,7.28
2023-03-03T23:38:24.682Z,7.28
2023-03-03T23:40:53.574Z,7.28
2023-03-03T23:43:24.001Z,7.26
2023-03-03T23:45:52.483Z,7.19
2023-03-03T23:48:23.527Z,7.11
2023-03-03T23:50:52.324Z,7.05
2023-03-03T23:53:20.691Z,7.04
2023-03-03T23:55:49.372Z,7.14
2023-03-03T23:58:18.079Z,7.24
